Lahaina, HI

9:34 PM HST on July 24, 2016 (GMT -1000)
West Mahi Pua | | Change Station
Active Advisory: Flash Flood Watch

Elev 256 ft 20.92 °N, 156.68 °W | Updated 5 minutes ago

Clear
Clear
79.9 °F
Feels Like 84 °F
N
0.0
Wind Variable Wind from East

Today
High -- | Low -- °F
--% Chance of Precip.
Yesterday
High -- | Low -- °F
Precip. -- in
Pressure 29.95 in
Visibility 10.0 miles
Clouds Clear
Heat Index 84 °F
Dew Point 74 °F
Humidity 83%
Rainfall 0.07 in
Snow Depth Not available.
5:57 AM 7:08 PM
Waning Gibbous, 68% visible
METAR PHOG 250654Z 06004KT 10SM CLR 26/23 A2993 RMK AO2 SLP140 T02610228 $
Pressure 29.95 in
Visibility 10.0 miles
Clouds Clear
Heat Index 84 °F
Dew Point 74 °F
Humidity 83%
Rainfall 0.07 in
Snow Depth Not available.
5:57 AM 7:08 PM
Waning Gibbous, 68% visible
METAR PHOG 250654Z 06004KT 10SM CLR 26/23 A2993 RMK AO2 SLP140 T02610228 $

10-Day Weather Forecast

Almanac

Astronomy

Jul. 24, 2016 Rise Set
Actual Time
Civil Twilight
Nautical Twilight
Astronomical Twilight
Moon
Length of Visible Light
Length of Day
Tomorrow will be .
, % of the Moon is Illuminated

Today's Extremes

State Highs State Lows

Community

WunderPhotos

Upload Photos

1,927,274 photos uploaded!

WunderBlog® & News

Nearby

Air Quality

  Air Quality AQ Index Pollutant
Not available.

Snow Depth

Station Depth Elevation

Earthquake Activity

City Distance Mag. Time & Date
Minimum magnitude displayed is 2.5.

Coastal Water Temperatures

Place Temperature

Stations

Nearby Weather Stations

Station Location Temp. Windchill Dew Point Humidity Wind Precip. Elev Updated Type
                   

Watches & Warnings

Flash Flood Watch
Issued: 3:46 PM HST Jul. 24, 2016 – National Weather Service

... Flash Flood Watch remains in effect through tonight...

The Flash Flood Watch continues for

* Kahoolawe... Lanai... Maui and Molokai

* through tonight.

* Rain bands around Tropical Storm Darby will bring frequent
showers... with localized heavy rainfall and flash flooding
possible tonight.

Precautionary/preparedness actions...

A Flash Flood Watch means that conditions may develop that lead
to flash flooding. Flash flooding is very dangerous.

You should monitor later forecasts and be prepared to take action
should flash flood warnings be issued.